Brushton, New York
Current Conditions -  °F | °C
As of 10:53 AM on Wednesday 28 Jan 2015 (Local Time) from KMSS Reporting Station
Clear Clear  
Wind Chill: -4°   Ceiling: Unl
Heat Index:   Visibility: 10mi
Dew Point: -9°   Wind: 8mph
Humidity: 46%   Direction: 230°SW
Pressure: 30.24"   Gusts: NA
Location:  44.83°N, 74.51°W
Report Text: KMSS 281553Z AUTO 23007KT 10SM CLR M13/M23 A3024 RMK AO2 SLP251 T11331228
Loading
Personal Weather Stations






























Interactive Weather Map New forecast layout! Learn more

10-Day Weather Forecast

Advertisements
Track Severe Weather on mobile